Lyman, South Carolina
Current Conditions -  °F | °C
As of 5:53 PM on Tuesday 25 Nov 2014 (Local Time) from KGSP Reporting Station
Clear Clear  
Wind Chill: 53°   Ceiling: Unl
Heat Index: 53°   Visibility: 10mi
Dew Point: 41°   Wind: 3mph
Humidity: 64%   Direction: 40°NE
Pressure: 30.03"   Gusts: NA
Location:  34.95°N, 82.13°W
Report Text: KGSP 252253Z 04003KT 10SM CLR 12/05 A3003 RMK AO2 SLP166 T01170050
Loading
Personal Weather Stations






























Interactive Weather Map New forecast layout! Learn more

10-Day Weather Forecast

Advertisements
Track Severe Weather on mobile